Terminal Aerodrome Forecast
Issued by NWS Jackson, KY

Home | Current Version | Previous Version | Text Only | Print | Product List | Glossary On
Versions: 1 2 3 4 5 6 7 8 9 10 11 12 13 14 15
000
FTUS43 KJKL 031044 AAA
TAFLOZ
TAF AMD
KLOZ 031044Z 0311/0406 00000KT 3/4SM BR VV001
     FM031200 VRB03KT 4SM BR SCT002
     FM031300 VRB03KT P6SM FEW250
     FM031500 01005KT P6SM SCT050=

USA.gov is the U.S. government's official web portal to all federal, state and local government web resources and services.